La Rue, Ohio
Current Conditions -  °F | °C
As of 12:53 AM on Tuesday 27 Jan 2015 (Local Time) from KMNN Reporting Station
Haze Haze  
Wind Chill:   Ceiling: Unl
Heat Index:   Visibility: 1mi
Dew Point: -3°   Wind: 0mph
Humidity: 83%   Direction: NA
Pressure: 29.94"   Gusts: NA
Location:  40.58°N, 83.38°W
Report Text: KMNN 270553Z AUTO 00000KT 1SM BR CLR M17/M19 A2994 RMK AO2 SLP159 I6000 T11721194 11133 21178 56005 TSNO $
Loading
Personal Weather Stations






























Interactive Weather Map New forecast layout! Learn more

10-Day Weather Forecast

Advertisements
Track Severe Weather on mobile